Big Spring, Texas
Current Conditions -  °F | °C
As of 4:35 PM on Monday 24 Nov 2014 (Local Time) from KBPG Reporting Station
Clear Clear  
Wind Chill: 56°   Ceiling: Unl
Heat Index: 56°   Visibility: 10mi
Dew Point: 25°   Wind: 3mph
Humidity: 29%   Direction: 270°W
Pressure: 30.07"   Gusts: NA
Location:  32.25°N, 101.47°W
Report Text: KBPG 242235Z AUTO 27003KT 10SM CLR 14/M04 A3007 RMK AO2 T01351041
Loading
Personal Weather Stations






























Interactive Weather Map New forecast layout! Learn more

10-Day Weather Forecast

Advertisements
Track Severe Weather on mobile